sensor_id;sensor_type;location;lat;lon;timestamp;temperature;humidity
41447;DHT22;27185;52.040;4.490;2024-02-26T00:00:17;8.30;99.90
41447;DHT22;27185;52.040;4.490;2024-02-26T00:03:03;8.30;99.90
41447;DHT22;27185;52.040;4.490;2024-02-26T00:05:49;8.30;99.90
41447;DHT22;27185;52.040;4.490;2024-02-26T00:08:36;8.30;99.90
41447;DHT22;27185;52.040;4.490;2024-02-26T00:11:21;8.30;99.90
41447;DHT22;27185;52.040;4.490;2024-02-26T00:14:07;8.30;99.90
41447;DHT22;27185;52.040;4.490;2024-02-26T00:16:53;8.30;99.90
41447;DHT22;27185;52.040;4.490;2024-02-26T00:19:42;8.30;99.90
41447;DHT22;27185;52.040;4.490;2024-02-26T00:22:28;8.30;99.90
41447;DHT22;27185;52.040;4.490;2024-02-26T00:25:14;8.30;99.90
41447;DHT22;27185;52.040;4.490;2024-02-26T00:28:00;8.30;99.90
41447;DHT22;27185;52.040;4.490;2024-02-26T00:30:46;8.30;99.90
41447;DHT22;27185;52.040;4.490;2024-02-26T00:33:32;8.30;99.90
41447;DHT22;27185;52.040;4.490;2024-02-26T00:36:18;8.40;99.90
41447;DHT22;27185;52.040;4.490;2024-02-26T00:39:04;8.40;99.90
41447;DHT22;27185;52.040;4.490;2024-02-26T00:41:50;8.40;99.90
41447;DHT22;27185;52.040;4.490;2024-02-26T00:44:37;8.40;99.90
41447;DHT22;27185;52.040;4.490;2024-02-26T00:47:23;8.40;99.90
41447;DHT22;27185;52.040;4.490;2024-02-26T00:50:09;8.40;99.90
41447;DHT22;27185;52.040;4.490;2024-02-26T00:52:55;8.50;99.90
41447;DHT22;27185;52.040;4.490;2024-02-26T00:55:41;8.50;99.90
41447;DHT22;27185;52.040;4.490;2024-02-26T00:58:27;8.50;99.90
41447;DHT22;27185;52.040;4.490;2024-02-26T01:01:13;8.50;99.90
41447;DHT22;27185;52.040;4.490;2024-02-26T01:03:59;8.50;99.90
41447;DHT22;27185;52.040;4.490;2024-02-26T01:06:44;8.50;99.90
41447;DHT22;27185;52.040;4.490;2024-02-26T01:09:30;8.50;99.90
41447;DHT22;27185;52.040;4.490;2024-02-26T01:12:18;8.50;99.90
41447;DHT22;27185;52.040;4.490;2024-02-26T01:15:04;8.50;99.90
41447;DHT22;27185;52.040;4.490;2024-02-26T01:17:52;8.50;99.90
41447;DHT22;27185;52.040;4.490;2024-02-26T01:20:39;8.50;99.90
41447;DHT22;27185;52.040;4.490;2024-02-26T01:23:25;8.50;99.90
41447;DHT22;27185;52.040;4.490;2024-02-26T01:26:11;8.50;99.90
41447;DHT22;27185;52.040;4.490;2024-02-26T01:28:56;8.50;99.90
41447;DHT22;27185;52.040;4.490;2024-02-26T01:31:43;8.50;99.90
41447;DHT22;27185;52.040;4.490;2024-02-26T01:34:29;8.50;99.90
41447;DHT22;27185;52.040;4.490;2024-02-26T01:37:14;8.50;99.90
41447;DHT22;27185;52.040;4.490;2024-02-26T01:40:00;8.50;99.90
41447;DHT22;27185;52.040;4.490;2024-02-26T01:42:55;8.50;99.90
41447;DHT22;27185;52.040;4.490;2024-02-26T01:45:40;8.50;99.90
41447;DHT22;27185;52.040;4.490;2024-02-26T01:48:26;8.50;99.90
41447;DHT22;27185;52.040;4.490;2024-02-26T01:51:13;8.50;99.90
41447;DHT22;27185;52.040;4.490;2024-02-26T01:54:02;8.50;99.90
41447;DHT22;27185;52.040;4.490;2024-02-26T01:56:49;8.50;99.90
41447;DHT22;27185;52.040;4.490;2024-02-26T01:59:37;8.50;99.90
41447;DHT22;27185;52.040;4.490;2024-02-26T02:02:23;8.50;99.90
41447;DHT22;27185;52.040;4.490;2024-02-26T02:05:10;8.60;99.90
41447;DHT22;27185;52.040;4.490;2024-02-26T02:07:57;8.60;99.90
41447;DHT22;27185;52.040;4.490;2024-02-26T02:10:43;8.60;99.90
41447;DHT22;27185;52.040;4.490;2024-02-26T02:13:32;8.60;99.90
41447;DHT22;27185;52.040;4.490;2024-02-26T02:16:18;8.60;99.90
41447;DHT22;27185;52.040;4.490;2024-02-26T02:19:04;8.60;99.90
41447;DHT22;27185;52.040;4.490;2024-02-26T02:21:50;8.60;99.90
41447;DHT22;27185;52.040;4.490;2024-02-26T02:24:36;8.60;99.90
41447;DHT22;27185;52.040;4.490;2024-02-26T02:27:23;8.60;99.90
41447;DHT22;27185;52.040;4.490;2024-02-26T02:30:11;8.60;99.90
41447;DHT22;27185;52.040;4.490;2024-02-26T02:32:57;8.60;99.90
41447;DHT22;27185;52.040;4.490;2024-02-26T02:35:46;8.60;99.90
41447;DHT22;27185;52.040;4.490;2024-02-26T02:38:32;8.60;99.90
41447;DHT22;27185;52.040;4.490;2024-02-26T02:41:19;8.60;99.90
41447;DHT22;27185;52.040;4.490;2024-02-26T02:44:05;8.60;99.90
41447;DHT22;27185;52.040;4.490;2024-02-26T02:46:51;8.50;99.90
41447;DHT22;27185;52.040;4.490;2024-02-26T02:49:39;8.60;99.90
41447;DHT22;27185;52.040;4.490;2024-02-26T02:52:25;8.60;99.90
41447;DHT22;27185;52.040;4.490;2024-02-26T02:55:13;8.60;99.90
41447;DHT22;27185;52.040;4.490;2024-02-26T02:57:59;8.60;99.90
41447;DHT22;27185;52.040;4.490;2024-02-26T03:00:45;8.50;99.90
41447;DHT22;27185;52.040;4.490;2024-02-26T03:03:31;8.60;99.90
41447;DHT22;27185;52.040;4.490;2024-02-26T03:06:17;8.60;99.90
41447;DHT22;27185;52.040;4.490;2024-02-26T03:09:03;8.60;99.90
41447;DHT22;27185;52.040;4.490;2024-02-26T03:11:49;8.60;99.90
41447;DHT22;27185;52.040;4.490;2024-02-26T03:14:36;8.60;99.90
41447;DHT22;27185;52.040;4.490;2024-02-26T03:17:22;8.60;99.90
41447;DHT22;27185;52.040;4.490;2024-02-26T03:20:10;8.60;99.90
41447;DHT22;27185;52.040;4.490;2024-02-26T03:22:56;8.60;99.90
41447;DHT22;27185;52.040;4.490;2024-02-26T03:25:45;8.60;99.90
41447;DHT22;27185;52.040;4.490;2024-02-26T03:28:33;8.60;99.90
41447;DHT22;27185;52.040;4.490;2024-02-26T03:31:19;8.60;99.90
41447;DHT22;27185;52.040;4.490;2024-02-26T03:34:07;8.60;99.90
41447;DHT22;27185;52.040;4.490;2024-02-26T03:36:52;8.50;99.90
41447;DHT22;27185;52.040;4.490;2024-02-26T03:39:38;8.50;99.90
41447;DHT22;27185;52.040;4.490;2024-02-26T03:42:24;8.40;99.90
41447;DHT22;27185;52.040;4.490;2024-02-26T03:45:10;8.40;99.90
41447;DHT22;27185;52.040;4.490;2024-02-26T03:47:56;8.40;99.90
41447;DHT22;27185;52.040;4.490;2024-02-26T03:50:42;8.40;99.90
41447;DHT22;27185;52.040;4.490;2024-02-26T03:53:27;8.40;99.90
41447;DHT22;27185;52.040;4.490;2024-02-26T03:56:13;8.40;99.90
41447;DHT22;27185;52.040;4.490;2024-02-26T03:58:59;8.40;99.90
41447;DHT22;27185;52.040;4.490;2024-02-26T04:01:48;8.40;99.90
41447;DHT22;27185;52.040;4.490;2024-02-26T04:04:35;8.40;99.90
41447;DHT22;27185;52.040;4.490;2024-02-26T04:07:20;8.40;99.90
41447;DHT22;27185;52.040;4.490;2024-02-26T04:10:10;8.40;99.90
41447;DHT22;27185;52.040;4.490;2024-02-26T04:12:56;8.40;99.90
41447;DHT22;27185;52.040;4.490;2024-02-26T04:15:44;8.40;99.90
41447;DHT22;27185;52.040;4.490;2024-02-26T04:18:29;8.40;99.90
41447;DHT22;27185;52.040;4.490;2024-02-26T04:21:15;8.30;99.90
41447;DHT22;27185;52.040;4.490;2024-02-26T04:24:01;8.30;99.90
41447;DHT22;27185;52.040;4.490;2024-02-26T04:26:47;8.30;99.90
41447;DHT22;27185;52.040;4.490;2024-02-26T04:29:35;8.30;99.90
41447;DHT22;27185;52.040;4.490;2024-02-26T04:32:21;8.30;99.90
41447;DHT22;27185;52.040;4.490;2024-02-26T04:35:07;8.30;99.90
41447;DHT22;27185;52.040;4.490;2024-02-26T04:37:52;8.30;99.90
41447;DHT22;27185;52.040;4.490;2024-02-26T04:40:38;8.30;99.90
41447;DHT22;27185;52.040;4.490;2024-02-26T04:43:24;8.30;99.90
41447;DHT22;27185;52.040;4.490;2024-02-26T04:46:10;8.30;99.90
41447;DHT22;27185;52.040;4.490;2024-02-26T04:48:56;8.30;99.90
41447;DHT22;27185;52.040;4.490;2024-02-26T04:51:42;8.40;99.90
41447;DHT22;27185;52.040;4.490;2024-02-26T04:54:27;8.30;99.90
41447;DHT22;27185;52.040;4.490;2024-02-26T04:57:13;8.30;99.90
41447;DHT22;27185;52.040;4.490;2024-02-26T05:00:00;8.30;99.90
41447;DHT22;27185;52.040;4.490;2024-02-26T05:02:46;8.30;99.90
41447;DHT22;27185;52.040;4.490;2024-02-26T05:05:32;8.30;99.90
41447;DHT22;27185;52.040;4.490;2024-02-26T05:08:17;8.30;99.90
41447;DHT22;27185;52.040;4.490;2024-02-26T05:11:04;8.30;99.90
41447;DHT22;27185;52.040;4.490;2024-02-26T05:13:51;8.30;99.90
41447;DHT22;27185;52.040;4.490;2024-02-26T05:16:37;8.30;99.90
41447;DHT22;27185;52.040;4.490;2024-02-26T05:19:23;8.30;99.90
41447;DHT22;27185;52.040;4.490;2024-02-26T05:22:09;8.30;99.90
41447;DHT22;27185;52.040;4.490;2024-02-26T05:24:54;8.30;99.90
41447;DHT22;27185;52.040;4.490;2024-02-26T05:27:41;8.20;99.90
41447;DHT22;27185;52.040;4.490;2024-02-26T05:30:29;8.20;99.90
41447;DHT22;27185;52.040;4.490;2024-02-26T05:33:15;8.20;99.90
41447;DHT22;27185;52.040;4.490;2024-02-26T05:36:01;8.20;99.90
41447;DHT22;27185;52.040;4.490;2024-02-26T05:38:49;8.20;99.90
41447;DHT22;27185;52.040;4.490;2024-02-26T05:41:35;8.10;99.90
41447;DHT22;27185;52.040;4.490;2024-02-26T05:44:22;8.20;99.90
41447;DHT22;27185;52.040;4.490;2024-02-26T05:47:08;8.10;99.90
41447;DHT22;27185;52.040;4.490;2024-02-26T05:49:54;8.10;99.90
41447;DHT22;27185;52.040;4.490;2024-02-26T05:52:40;8.10;99.90
41447;DHT22;27185;52.040;4.490;2024-02-26T05:55:26;8.10;99.90
41447;DHT22;27185;52.040;4.490;2024-02-26T05:58:13;8.10;99.90
41447;DHT22;27185;52.040;4.490;2024-02-26T06:01:00;8.10;99.90
41447;DHT22;27185;52.040;4.490;2024-02-26T06:03:45;8.10;99.90
41447;DHT22;27185;52.040;4.490;2024-02-26T06:06:31;8.10;99.90
41447;DHT22;27185;52.040;4.490;2024-02-26T06:09:17;8.10;99.90
41447;DHT22;27185;52.040;4.490;2024-02-26T06:12:03;8.10;99.90
41447;DHT22;27185;52.040;4.490;2024-02-26T06:14:49;8.10;99.90
41447;DHT22;27185;52.040;4.490;2024-02-26T06:17:35;8.10;99.90
41447;DHT22;27185;52.040;4.490;2024-02-26T06:20:22;8.10;99.90
41447;DHT22;27185;52.040;4.490;2024-02-26T06:23:08;8.10;99.90
41447;DHT22;27185;52.040;4.490;2024-02-26T06:25:55;8.20;99.90
41447;DHT22;27185;52.040;4.490;2024-02-26T06:28:41;8.10;99.90
41447;DHT22;27185;52.040;4.490;2024-02-26T06:31:27;8.10;99.90
41447;DHT22;27185;52.040;4.490;2024-02-26T06:34:13;8.10;99.90
41447;DHT22;27185;52.040;4.490;2024-02-26T06:36:58;8.10;99.90
41447;DHT22;27185;52.040;4.490;2024-02-26T06:39:45;8.10;99.90
41447;DHT22;27185;52.040;4.490;2024-02-26T06:42:30;8.10;99.90
41447;DHT22;27185;52.040;4.490;2024-02-26T06:45:17;8.10;99.90
41447;DHT22;27185;52.040;4.490;2024-02-26T06:48:05;8.10;99.90
41447;DHT22;27185;52.040;4.490;2024-02-26T06:50:51;8.10;99.90
41447;DHT22;27185;52.040;4.490;2024-02-26T06:53:37;8.10;99.90
41447;DHT22;27185;52.040;4.490;2024-02-26T06:56:23;8.10;99.90
41447;DHT22;27185;52.040;4.490;2024-02-26T06:59:09;8.20;99.90
41447;DHT22;27185;52.040;4.490;2024-02-26T07:01:55;8.20;99.90
41447;DHT22;27185;52.040;4.490;2024-02-26T07:04:44;8.10;99.90
41447;DHT22;27185;52.040;4.490;2024-02-26T07:07:29;8.10;99.90
41447;DHT22;27185;52.040;4.490;2024-02-26T07:10:15;8.20;99.90
41447;DHT22;27185;52.040;4.490;2024-02-26T07:13:01;8.20;99.90
41447;DHT22;27185;52.040;4.490;2024-02-26T07:15:47;8.20;99.90
41447;DHT22;27185;52.040;4.490;2024-02-26T07:18:33;8.10;99.90
41447;DHT22;27185;52.040;4.490;2024-02-26T07:21:19;8.20;99.90
41447;DHT22;27185;52.040;4.490;2024-02-26T07:24:05;8.10;99.90
41447;DHT22;27185;52.040;4.490;2024-02-26T07:26:52;8.20;99.90
41447;DHT22;27185;52.040;4.490;2024-02-26T07:29:39;8.20;99.90
41447;DHT22;27185;52.040;4.490;2024-02-26T07:32:25;8.20;99.90
41447;DHT22;27185;52.040;4.490;2024-02-26T07:35:11;8.20;99.90
41447;DHT22;27185;52.040;4.490;2024-02-26T07:37:57;8.20;99.90
41447;DHT22;27185;52.040;4.490;2024-02-26T07:40:43;8.10;99.90
41447;DHT22;27185;52.040;4.490;2024-02-26T07:43:29;8.10;99.90
41447;DHT22;27185;52.040;4.490;2024-02-26T07:46:15;8.20;99.90
41447;DHT22;27185;52.040;4.490;2024-02-26T07:49:03;8.10;99.90
41447;DHT22;27185;52.040;4.490;2024-02-26T07:51:49;8.20;99.90
41447;DHT22;27185;52.040;4.490;2024-02-26T07:54:34;8.10;99.90
41447;DHT22;27185;52.040;4.490;2024-02-26T07:57:20;8.10;99.90
41447;DHT22;27185;52.040;4.490;2024-02-26T08:00:07;8.20;99.90
41447;DHT22;27185;52.040;4.490;2024-02-26T08:02:54;8.10;99.90
41447;DHT22;27185;52.040;4.490;2024-02-26T08:05:40;8.10;99.90
41447;DHT22;27185;52.040;4.490;2024-02-26T08:08:28;8.10;99.90
41447;DHT22;27185;52.040;4.490;2024-02-26T08:11:17;8.10;99.90
41447;DHT22;27185;52.040;4.490;2024-02-26T08:14:02;8.10;99.90
41447;DHT22;27185;52.040;4.490;2024-02-26T08:16:48;8.10;99.90
41447;DHT22;27185;52.040;4.490;2024-02-26T08:19:34;8.10;99.90
41447;DHT22;27185;52.040;4.490;2024-02-26T08:22:21;8.10;99.90
41447;DHT22;27185;52.040;4.490;2024-02-26T08:25:07;8.10;99.90
41447;DHT22;27185;52.040;4.490;2024-02-26T08:27:54;8.10;99.90
41447;DHT22;27185;52.040;4.490;2024-02-26T08:30:40;8.10;99.90
41447;DHT22;27185;52.040;4.490;2024-02-26T08:33:26;8.10;99.90
41447;DHT22;27185;52.040;4.490;2024-02-26T08:36:14;8.10;99.90
41447;DHT22;27185;52.040;4.490;2024-02-26T08:39:00;8.10;99.90
41447;DHT22;27185;52.040;4.490;2024-02-26T08:41:46;8.10;99.90
41447;DHT22;27185;52.040;4.490;2024-02-26T08:44:32;8.10;99.90
41447;DHT22;27185;52.040;4.490;2024-02-26T08:47:18;8.10;99.90
41447;DHT22;27185;52.040;4.490;2024-02-26T08:50:04;8.10;99.90
41447;DHT22;27185;52.040;4.490;2024-02-26T08:52:50;8.20;99.90
41447;DHT22;27185;52.040;4.490;2024-02-26T08:55:36;8.20;99.90
41447;DHT22;27185;52.040;4.490;2024-02-26T08:58:21;8.20;99.90
41447;DHT22;27185;52.040;4.490;2024-02-26T09:01:07;8.30;99.90
41447;DHT22;27185;52.040;4.490;2024-02-26T09:03:53;8.20;99.90
41447;DHT22;27185;52.040;4.490;2024-02-26T09:06:38;8.30;99.90
41447;DHT22;27185;52.040;4.490;2024-02-26T09:09:24;8.30;99.90
41447;DHT22;27185;52.040;4.490;2024-02-26T09:12:11;8.30;99.90
41447;DHT22;27185;52.040;4.490;2024-02-26T09:14:57;8.40;99.90
41447;DHT22;27185;52.040;4.490;2024-02-26T09:17:43;8.40;99.90
41447;DHT22;27185;52.040;4.490;2024-02-26T09:20:30;8.40;99.90
41447;DHT22;27185;52.040;4.490;2024-02-26T09:23:16;8.40;99.90
41447;DHT22;27185;52.040;4.490;2024-02-26T09:26:01;8.40;99.90
41447;DHT22;27185;52.040;4.490;2024-02-26T09:28:47;8.40;99.90
41447;DHT22;27185;52.040;4.490;2024-02-26T09:31:33;8.40;99.90
41447;DHT22;27185;52.040;4.490;2024-02-26T09:34:19;8.50;99.90
41447;DHT22;27185;52.040;4.490;2024-02-26T09:37:05;8.50;99.90
41447;DHT22;27185;52.040;4.490;2024-02-26T09:39:50;8.50;99.90
41447;DHT22;27185;52.040;4.490;2024-02-26T09:42:36;8.50;99.90
41447;DHT22;27185;52.040;4.490;2024-02-26T09:45:25;8.50;99.90
41447;DHT22;27185;52.040;4.490;2024-02-26T09:48:13;8.50;99.90
41447;DHT22;27185;52.040;4.490;2024-02-26T09:51:02;8.60;99.90
41447;DHT22;27185;52.040;4.490;2024-02-26T09:53:47;8.50;99.90
41447;DHT22;27185;52.040;4.490;2024-02-26T09:56:34;8.50;99.90
41447;DHT22;27185;52.040;4.490;2024-02-26T09:59:20;8.50;99.90
41447;DHT22;27185;52.040;4.490;2024-02-26T10:02:09;8.50;99.90
41447;DHT22;27185;52.040;4.490;2024-02-26T10:04:57;8.50;99.90
41447;DHT22;27185;52.040;4.490;2024-02-26T10:07:46;8.50;99.90
41447;DHT22;27185;52.040;4.490;2024-02-26T10:10:32;8.50;99.90
41447;DHT22;27185;52.040;4.490;2024-02-26T10:13:18;8.60;99.90
41447;DHT22;27185;52.040;4.490;2024-02-26T10:16:06;8.60;99.90
41447;DHT22;27185;52.040;4.490;2024-02-26T10:18:53;8.60;99.90
41447;DHT22;27185;52.040;4.490;2024-02-26T10:21:42;8.60;99.90
41447;DHT22;27185;52.040;4.490;2024-02-26T10:24:29;8.70;99.90
41447;DHT22;27185;52.040;4.490;2024-02-26T10:27:15;8.70;99.90
41447;DHT22;27185;52.040;4.490;2024-02-26T10:30:12;8.70;99.90
41447;DHT22;27185;52.040;4.490;2024-02-26T10:33:00;8.70;99.90
41447;DHT22;27185;52.040;4.490;2024-02-26T10:35:47;8.80;99.90
41447;DHT22;27185;52.040;4.490;2024-02-26T10:38:33;8.80;99.90
41447;DHT22;27185;52.040;4.490;2024-02-26T10:41:19;8.70;99.90
41447;DHT22;27185;52.040;4.490;2024-02-26T10:44:05;8.70;99.90
41447;DHT22;27185;52.040;4.490;2024-02-26T10:46:50;8.70;99.90
41447;DHT22;27185;52.040;4.490;2024-02-26T10:49:37;8.70;99.90
41447;DHT22;27185;52.040;4.490;2024-02-26T10:52:23;8.70;99.90
41447;DHT22;27185;52.040;4.490;2024-02-26T10:55:15;8.70;99.90
41447;DHT22;27185;52.040;4.490;2024-02-26T10:58:04;8.70;99.90
41447;DHT22;27185;52.040;4.490;2024-02-26T11:00:51;8.60;99.90
41447;DHT22;27185;52.040;4.490;2024-02-26T11:03:37;8.60;99.90
41447;DHT22;27185;52.040;4.490;2024-02-26T11:06:26;8.60;99.90
41447;DHT22;27185;52.040;4.490;2024-02-26T11:09:12;8.60;99.90
41447;DHT22;27185;52.040;4.490;2024-02-26T11:12:02;8.50;99.90
41447;DHT22;27185;52.040;4.490;2024-02-26T11:14:48;8.50;99.90
41447;DHT22;27185;52.040;4.490;2024-02-26T11:17:36;8.50;99.90
41447;DHT22;27185;52.040;4.490;2024-02-26T11:20:24;8.50;99.90
41447;DHT22;27185;52.040;4.490;2024-02-26T11:23:10;8.50;99.90
41447;DHT22;27185;52.040;4.490;2024-02-26T11:25:57;8.40;99.90
41447;DHT22;27185;52.040;4.490;2024-02-26T11:28:45;8.50;99.90
41447;DHT22;27185;52.040;4.490;2024-02-26T11:31:32;8.40;99.90
41447;DHT22;27185;52.040;4.490;2024-02-26T11:34:18;8.40;99.90
41447;DHT22;27185;52.040;4.490;2024-02-26T11:37:13;8.40;99.90
41447;DHT22;27185;52.040;4.490;2024-02-26T11:39:59;8.30;99.90
41447;DHT22;27185;52.040;4.490;2024-02-26T11:42:48;8.30;99.90
41447;DHT22;27185;52.040;4.490;2024-02-26T11:48:25;8.30;99.90
41447;DHT22;27185;52.040;4.490;2024-02-26T11:51:11;8.40;99.90
41447;DHT22;27185;52.040;4.490;2024-02-26T11:53:58;8.30;99.90
41447;DHT22;27185;52.040;4.490;2024-02-26T11:56:45;8.40;99.90
41447;DHT22;27185;52.040;4.490;2024-02-26T11:59:38;8.50;99.90
41447;DHT22;27185;52.040;4.490;2024-02-26T12:02:44;8.50;99.90
41447;DHT22;27185;52.040;4.490;2024-02-26T12:05:33;8.50;99.90
41447;DHT22;27185;52.040;4.490;2024-02-26T12:08:21;8.50;99.90
41447;DHT22;27185;52.040;4.490;2024-02-26T12:11:14;8.50;99.90
41447;DHT22;27185;52.040;4.490;2024-02-26T12:14:00;8.50;99.90
41447;DHT22;27185;52.040;4.490;2024-02-26T12:16:50;8.50;99.90
41447;DHT22;27185;52.040;4.490;2024-02-26T12:19:36;8.50;99.90
41447;DHT22;27185;52.040;4.490;2024-02-26T12:22:23;8.50;99.90
41447;DHT22;27185;52.040;4.490;2024-02-26T12:25:10;8.50;99.90
41447;DHT22;27185;52.040;4.490;2024-02-26T12:27:56;8.60;99.90
41447;DHT22;27185;52.040;4.490;2024-02-26T12:30:41;8.60;99.90
41447;DHT22;27185;52.040;4.490;2024-02-26T12:33:27;8.60;99.90
41447;DHT22;27185;52.040;4.490;2024-02-26T12:36:13;8.60;99.90
41447;DHT22;27185;52.040;4.490;2024-02-26T12:39:00;8.60;99.90
41447;DHT22;27185;52.040;4.490;2024-02-26T12:41:46;8.60;99.90
41447;DHT22;27185;52.040;4.490;2024-02-26T12:44:35;8.60;99.90
41447;DHT22;27185;52.040;4.490;2024-02-26T12:47:20;8.60;99.90
41447;DHT22;27185;52.040;4.490;2024-02-26T12:50:07;8.60;99.90
41447;DHT22;27185;52.040;4.490;2024-02-26T12:52:53;8.60;99.90
41447;DHT22;27185;52.040;4.490;2024-02-26T12:55:39;8.60;99.90
41447;DHT22;27185;52.040;4.490;2024-02-26T12:58:26;8.60;99.90
41447;DHT22;27185;52.040;4.490;2024-02-26T13:01:19;8.60;99.90
41447;DHT22;27185;52.040;4.490;2024-02-26T13:04:06;8.60;99.90
41447;DHT22;27185;52.040;4.490;2024-02-26T13:06:52;8.70;99.90
41447;DHT22;27185;52.040;4.490;2024-02-26T13:09:38;8.70;99.90
41447;DHT22;27185;52.040;4.490;2024-02-26T13:12:24;8.80;99.90
41447;DHT22;27185;52.040;4.490;2024-02-26T13:15:14;8.80;99.90
41447;DHT22;27185;52.040;4.490;2024-02-26T13:18:11;8.80;99.90
41447;DHT22;27185;52.040;4.490;2024-02-26T13:21:14;8.90;99.90
41447;DHT22;27185;52.040;4.490;2024-02-26T13:24:00;8.90;99.90
41447;DHT22;27185;52.040;4.490;2024-02-26T13:26:46;9.00;99.90
41447;DHT22;27185;52.040;4.490;2024-02-26T13:29:32;9.00;99.90
41447;DHT22;27185;52.040;4.490;2024-02-26T13:32:17;9.10;99.90
41447;DHT22;27185;52.040;4.490;2024-02-26T13:35:11;9.10;99.90
41447;DHT22;27185;52.040;4.490;2024-02-26T13:37:56;9.20;99.90
41447;DHT22;27185;52.040;4.490;2024-02-26T13:40:42;9.20;99.90
41447;DHT22;27185;52.040;4.490;2024-02-26T13:43:28;9.20;99.90
41447;DHT22;27185;52.040;4.490;2024-02-26T13:46:13;9.20;99.90
41447;DHT22;27185;52.040;4.490;2024-02-26T13:49:00;9.30;99.90
41447;DHT22;27185;52.040;4.490;2024-02-26T13:51:46;9.30;99.90
41447;DHT22;27185;52.040;4.490;2024-02-26T13:54:32;9.30;99.90
41447;DHT22;27185;52.040;4.490;2024-02-26T13:57:19;9.40;99.90
41447;DHT22;27185;52.040;4.490;2024-02-26T14:00:05;9.40;99.90
41447;DHT22;27185;52.040;4.490;2024-02-26T14:02:51;9.40;99.90
41447;DHT22;27185;52.040;4.490;2024-02-26T14:05:37;9.50;99.90
41447;DHT22;27185;52.040;4.490;2024-02-26T14:08:23;9.60;99.90
41447;DHT22;27185;52.040;4.490;2024-02-26T14:11:09;9.60;99.90
41447;DHT22;27185;52.040;4.490;2024-02-26T14:13:54;9.60;99.90
41447;DHT22;27185;52.040;4.490;2024-02-26T14:16:40;9.60;99.90
41447;DHT22;27185;52.040;4.490;2024-02-26T14:19:26;9.60;99.90
41447;DHT22;27185;52.040;4.490;2024-02-26T14:22:12;9.60;99.90
41447;DHT22;27185;52.040;4.490;2024-02-26T14:24:57;9.70;99.90
41447;DHT22;27185;52.040;4.490;2024-02-26T14:27:44;9.70;99.90
41447;DHT22;27185;52.040;4.490;2024-02-26T14:30:30;9.70;99.90
41447;DHT22;27185;52.040;4.490;2024-02-26T14:33:15;9.70;99.90
41447;DHT22;27185;52.040;4.490;2024-02-26T14:36:01;9.70;99.90
41447;DHT22;27185;52.040;4.490;2024-02-26T14:38:48;9.70;99.90
41447;DHT22;27185;52.040;4.490;2024-02-26T14:41:34;9.70;99.90
41447;DHT22;27185;52.040;4.490;2024-02-26T14:44:19;9.80;99.90
41447;DHT22;27185;52.040;4.490;2024-02-26T14:47:05;9.80;99.90
41447;DHT22;27185;52.040;4.490;2024-02-26T14:49:51;9.70;99.90
41447;DHT22;27185;52.040;4.490;2024-02-26T14:52:37;9.70;99.90
41447;DHT22;27185;52.040;4.490;2024-02-26T14:55:22;9.70;99.90
41447;DHT22;27185;52.040;4.490;2024-02-26T14:58:08;9.80;99.90
41447;DHT22;27185;52.040;4.490;2024-02-26T15:00:56;9.70;99.90
41447;DHT22;27185;52.040;4.490;2024-02-26T15:03:42;9.70;99.90
41447;DHT22;27185;52.040;4.490;2024-02-26T15:06:27;9.70;99.90
41447;DHT22;27185;52.040;4.490;2024-02-26T15:09:13;9.70;99.90
41447;DHT22;27185;52.040;4.490;2024-02-26T15:11:58;9.80;99.90
41447;DHT22;27185;52.040;4.490;2024-02-26T15:14:44;9.80;99.90
41447;DHT22;27185;52.040;4.490;2024-02-26T15:17:30;9.70;99.90
41447;DHT22;27185;52.040;4.490;2024-02-26T15:20:19;9.70;99.90
41447;DHT22;27185;52.040;4.490;2024-02-26T15:23:05;9.70;99.90
41447;DHT22;27185;52.040;4.490;2024-02-26T15:25:51;9.70;99.90
41447;DHT22;27185;52.040;4.490;2024-02-26T15:28:37;9.80;99.90
41447;DHT22;27185;52.040;4.490;2024-02-26T15:31:23;9.70;99.90
41447;DHT22;27185;52.040;4.490;2024-02-26T15:34:09;9.70;99.90
41447;DHT22;27185;52.040;4.490;2024-02-26T15:36:55;9.70;99.90
41447;DHT22;27185;52.040;4.490;2024-02-26T15:39:41;9.70;99.90
41447;DHT22;27185;52.040;4.490;2024-02-26T15:42:27;9.70;99.90
41447;DHT22;27185;52.040;4.490;2024-02-26T15:45:12;9.70;99.90
41447;DHT22;27185;52.040;4.490;2024-02-26T15:47:58;9.60;99.90
41447;DHT22;27185;52.040;4.490;2024-02-26T15:50:44;9.60;99.90
41447;DHT22;27185;52.040;4.490;2024-02-26T15:53:30;9.60;99.90
41447;DHT22;27185;52.040;4.490;2024-02-26T15:56:16;9.60;99.90
41447;DHT22;27185;52.040;4.490;2024-02-26T15:59:02;9.50;99.90
41447;DHT22;27185;52.040;4.490;2024-02-26T16:01:48;9.60;99.90
41447;DHT22;27185;52.040;4.490;2024-02-26T16:04:34;9.50;99.90
41447;DHT22;27185;52.040;4.490;2024-02-26T16:07:45;9.50;99.90
41447;DHT22;27185;52.040;4.490;2024-02-26T16:10:31;9.50;99.90
41447;DHT22;27185;52.040;4.490;2024-02-26T16:13:17;9.50;99.90
41447;DHT22;27185;52.040;4.490;2024-02-26T16:16:06;9.40;99.90
41447;DHT22;27185;52.040;4.490;2024-02-26T16:19:02;9.40;99.90
41447;DHT22;27185;52.040;4.490;2024-02-26T16:21:50;9.40;99.90
41447;DHT22;27185;52.040;4.490;2024-02-26T16:24:36;9.40;99.90
41447;DHT22;27185;52.040;4.490;2024-02-26T16:27:22;9.40;99.90
41447;DHT22;27185;52.040;4.490;2024-02-26T16:30:08;9.30;99.90
41447;DHT22;27185;52.040;4.490;2024-02-26T16:32:54;9.30;99.90
41447;DHT22;27185;52.040;4.490;2024-02-26T16:35:40;9.20;99.90
41447;DHT22;27185;52.040;4.490;2024-02-26T16:38:26;9.20;99.90
41447;DHT22;27185;52.040;4.490;2024-02-26T16:41:12;9.10;99.90
41447;DHT22;27185;52.040;4.490;2024-02-26T16:43:58;9.10;99.90
41447;DHT22;27185;52.040;4.490;2024-02-26T16:46:48;9.00;99.90
41447;DHT22;27185;52.040;4.490;2024-02-26T16:49:34;9.00;99.90
41447;DHT22;27185;52.040;4.490;2024-02-26T16:52:21;8.90;99.90
41447;DHT22;27185;52.040;4.490;2024-02-26T16:55:08;8.90;99.90
41447;DHT22;27185;52.040;4.490;2024-02-26T16:57:54;8.80;99.90
41447;DHT22;27185;52.040;4.490;2024-02-26T17:00:41;8.80;99.90
41447;DHT22;27185;52.040;4.490;2024-02-26T17:03:27;8.70;99.90
41447;DHT22;27185;52.040;4.490;2024-02-26T17:06:13;8.70;99.90
41447;DHT22;27185;52.040;4.490;2024-02-26T17:08:59;8.60;99.90
41447;DHT22;27185;52.040;4.490;2024-02-26T17:11:47;8.60;99.90
41447;DHT22;27185;52.040;4.490;2024-02-26T17:14:33;8.60;99.90
41447;DHT22;27185;52.040;4.490;2024-02-26T17:17:21;8.50;99.90
41447;DHT22;27185;52.040;4.490;2024-02-26T17:20:07;8.40;99.90
41447;DHT22;27185;52.040;4.490;2024-02-26T17:22:54;8.40;99.90
41447;DHT22;27185;52.040;4.490;2024-02-26T17:25:40;8.40;99.90
41447;DHT22;27185;52.040;4.490;2024-02-26T17:28:26;8.30;99.90
41447;DHT22;27185;52.040;4.490;2024-02-26T17:31:12;8.30;99.90
41447;DHT22;27185;52.040;4.490;2024-02-26T17:33:58;8.30;99.90
41447;DHT22;27185;52.040;4.490;2024-02-26T17:36:47;8.30;99.90
41447;DHT22;27185;52.040;4.490;2024-02-26T17:39:32;8.30;99.90
41447;DHT22;27185;52.040;4.490;2024-02-26T17:42:18;8.30;99.90
41447;DHT22;27185;52.040;4.490;2024-02-26T17:45:05;8.20;99.90
41447;DHT22;27185;52.040;4.490;2024-02-26T17:47:51;8.20;99.90
41447;DHT22;27185;52.040;4.490;2024-02-26T17:50:38;8.20;99.90